Time;durP1;ratioP1;P1;durP2;ratioP2;P2;SDS_P1;SDS_P2;PMS_P1;PMS_P2;Temp;Humidity;BMP_temperature;BMP_pressure;BME280_temperature;BME280_humidity;BME280_pressure;Samples;Min_cycle;Max_cycle;Signal;HPM_P1;HPM_P2
2023/10/16 00:00:30;;;;;;;4.75;1.52;;;7.70;99.90;;;;;;5024975;28;20045;-82
2023/10/16 00:03:00;;;;;;;5.85;1.30;;;7.80;99.90;;;;;;5023443;28;20091;-82
2023/10/16 00:05:35;;;;;;;4.07;1.60;;;7.70;99.90;;;;;;5011564;28;20079;-82
2023/10/16 00:08:10;;;;;;;7.60;2.05;;;7.80;99.90;;;;;;5018589;28;20046;-82
2023/10/16 00:10:35;;;;;;;5.47;1.88;;;7.80;99.90;;;;;;5023283;28;20057;-83
2023/10/16 00:13:09;;;;;;;3.78;1.45;;;7.80;99.90;;;;;;5011516;28;20046;-83
2023/10/16 00:15:49;;;;;;;4.90;2.03;;;7.80;99.90;;;;;;5016861;28;20496;-83
2023/10/16 00:18:22;;;;;;;8.15;1.90;;;7.80;99.90;;;;;;5017002;28;20049;-83
2023/10/16 00:20:49;;;;;;;4.88;1.60;;;7.80;99.90;;;;;;5020388;28;20128;-84
2023/10/16 00:23:15;;;;;;;7.20;2.22;;;7.80;99.90;;;;;;5018890;28;20655;-84
2023/10/16 00:25:43;;;;;;;7.60;2.20;;;7.90;99.90;;;;;;5022259;28;20072;-84
2023/10/16 00:28:09;;;;;;;4.93;1.60;;;7.90;99.90;;;;;;5027490;28;20486;-84
2023/10/16 00:30:37;;;;;;;4.33;1.60;;;7.90;99.90;;;;;;5020915;28;20212;-84
2023/10/16 00:33:06;;;;;;;7.05;1.75;;;7.90;99.90;;;;;;5022804;28;20069;-84
2023/10/16 00:35:32;;;;;;;5.85;1.80;;;7.90;99.90;;;;;;5027128;28;20046;-84
2023/10/16 00:37:58;;;;;;;3.78;1.40;;;7.90;99.90;;;;;;5022813;28;20068;-84
2023/10/16 00:40:33;;;;;;;7.15;2.05;;;7.90;99.90;;;;;;5021174;28;20050;-84
2023/10/16 00:43:12;;;;;;;4.75;1.65;;;7.90;99.90;;;;;;5024206;28;20407;-84
2023/10/16 00:46:14;;;;;;;4.63;1.60;;;7.90;99.90;;;;;;5022308;28;20041;-84
2023/10/16 00:48:40;;;;;;;6.00;1.50;;;7.90;99.90;;;;;;5014673;28;20107;-83
2023/10/16 00:51:13;;;;;;;4.45;1.20;;;7.90;99.90;;;;;;5022463;28;20041;-83
2023/10/16 00:53:40;;;;;;;7.70;1.20;;;7.90;99.90;;;;;;5026665;28;20046;-85
2023/10/16 00:56:09;;;;;;;4.15;1.42;;;7.90;99.90;;;;;;5024828;28;20046;-83
2023/10/16 00:58:35;;;;;;;5.60;1.20;;;7.90;99.90;;;;;;5018096;28;20042;-84
2023/10/16 01:01:12;;;;;;;4.72;1.08;;;7.90;99.90;;;;;;5022754;28;20054;-85
2023/10/16 01:03:40;;;;;;;5.70;1.60;;;8.00;99.90;;;;;;5016487;28;20045;-83
2023/10/16 01:06:15;;;;;;;2.92;0.95;;;8.00;99.90;;;;;;5015469;28;20050;-83
2023/10/16 01:08:49;;;;;;;4.50;1.20;;;8.00;99.90;;;;;;5025805;28;20041;-83
2023/10/16 01:11:19;;;;;;;5.72;1.30;;;8.00;99.90;;;;;;5018553;28;20045;-82
2023/10/16 01:13:50;;;;;;;4.68;1.00;;;8.00;99.90;;;;;;5024847;28;20061;-83
2023/10/16 01:16:17;;;;;;;2.97;1.23;;;8.10;99.90;;;;;;5021058;28;20048;-84
2023/10/16 01:18:44;;;;;;;4.90;1.20;;;8.10;99.90;;;;;;5022261;28;20042;-84
2023/10/16 01:21:13;;;;;;;4.30;1.80;;;8.10;99.90;;;;;;5019866;28;20057;-85
2023/10/16 01:23:41;;;;;;;5.35;1.58;;;8.10;99.90;;;;;;5017812;28;20094;-84
2023/10/16 01:26:08;;;;;;;;;;;8.10;99.90;;;;;;5020959;28;20669;-82
2023/10/16 01:28:34;;;;;;;2.00;1.00;;;8.20;99.90;;;;;;5016154;28;19921;-88
2023/10/16 01:31:00;;;;;;;3.97;1.00;;;8.10;99.90;;;;;;5017610;28;20037;-88
2023/10/16 01:33:26;;;;;;;7.57;1.30;;;8.10;99.90;;;;;;5013498;28;20061;-87
2023/10/16 01:35:52;;;;;;;3.80;1.20;;;8.10;99.90;;;;;;5024865;28;20052;-87
2023/10/16 01:38:18;;;;;;;5.47;1.63;;;8.10;99.90;;;;;;5024698;28;20736;-88
2023/10/16 01:41:02;;;;;;;5.13;1.27;;;8.10;99.90;;;;;;5016830;28;20504;-88
2023/10/16 01:43:37;;;;;;;5.00;1.20;;;8.00;99.90;;;;;;5014051;28;20066;-88
2023/10/16 01:46:08;;;;;;;4.28;1.05;;;8.00;99.90;;;;;;5024233;28;20037;-89
2023/10/16 01:48:40;;;;;;;4.93;1.13;;;8.00;99.90;;;;;;5020707;28;20068;-88
2023/10/16 01:51:09;;;;;;;2.85;1.05;;;7.90;99.90;;;;;;5019587;28;20114;-89
2023/10/16 01:53:39;;;;;;;4.82;1.80;;;8.00;99.90;;;;;;5020856;28;20419;-88
2023/10/16 01:56:12;;;;;;;2.97;1.00;;;7.90;99.90;;;;;;5023591;28;20058;-88
2023/10/16 01:58:56;;;;;;;5.22;1.38;;;7.90;99.90;;;;;;5023828;28;20490;-90
2023/10/16 02:01:22;;;;;;;5.32;1.00;;;7.90;99.90;;;;;;5019012;28;20111;-87
2023/10/16 02:03:49;;;;;;;5.38;1.30;;;7.80;99.90;;;;;;5022945;28;20568;-87
2023/10/16 02:06:16;;;;;;;4.68;1.58;;;7.80;99.90;;;;;;5018846;28;20049;-88
2023/10/16 02:08:44;;;;;;;6.03;1.52;;;7.90;99.90;;;;;;5009188;28;20049;-87
2023/10/16 02:11:10;;;;;;;;;;;7.80;99.90;;;;;;5022288;28;20447;-88
2023/10/16 02:13:40;;;;;;;3.67;1.00;;;7.90;99.90;;;;;;5022551;28;19972;-88
2023/10/16 02:16:10;;;;;;;2.15;1.10;;;7.80;99.90;;;;;;5016759;28;20069;-87
2023/10/16 02:18:44;;;;;;;4.53;0.90;;;7.80;99.90;;;;;;5015198;28;20059;-87
2023/10/16 02:21:11;;;;;;;5.03;1.40;;;7.90;99.90;;;;;;5021842;28;20388;-88
2023/10/16 02:23:38;;;;;;;2.83;1.27;;;7.90;99.90;;;;;;5024688;28;20747;-87
2023/10/16 02:26:09;;;;;;;6.70;1.70;;;7.90;99.90;;;;;;5022393;28;20037;-88
2023/10/16 02:28:40;;;;;;;5.35;1.50;;;8.00;99.90;;;;;;5024301;28;20088;-88
2023/10/16 02:31:15;;;;;;;5.57;1.58;;;8.00;99.90;;;;;;5020048;28;20077;-87
2023/10/16 02:34:12;;;;;;;4.97;1.60;;;8.00;99.90;;;;;;5019417;28;20382;-88
2023/10/16 02:36:31;;;;;;;5.18;1.35;;;8.00;99.90;;;;;;5015410;28;20595;-89
2023/10/16 02:38:56;;;;;;;5.65;1.90;;;8.00;99.90;;;;;;5027492;28;20049;-89
2023/10/16 02:41:22;;;;;;;4.60;1.30;;;8.00;99.90;;;;;;5022543;28;20613;-88
2023/10/16 02:43:49;;;;;;;3.22;1.10;;;8.00;99.90;;;;;;5022057;28;20068;-90
2023/10/16 02:46:21;;;;;;;2.72;1.10;;;8.00;99.90;;;;;;5014639;28;20042;-88
2023/10/16 02:48:47;;;;;;;5.78;1.60;;;8.00;99.90;;;;;;5016400;28;20042;-89
2023/10/16 02:51:16;;;;;;;5.85;1.52;;;8.00;99.90;;;;;;5011724;28;20095;-89
2023/10/16 02:53:43;;;;;;;6.00;1.52;;;8.00;99.90;;;;;;5021819;28;20117;-88
2023/10/16 02:56:14;;;;;;;7.38;2.25;;;8.00;99.90;;;;;;5021735;28;20096;-88
2023/10/16 02:58:46;;;;;;;4.82;1.35;;;8.00;99.90;;;;;;5027169;28;20045;-89
2023/10/16 03:01:18;;;;;;;4.70;1.60;;;8.00;99.90;;;;;;5020984;28;20041;-88
2023/10/16 03:03:46;;;;;;;3.90;1.60;;;8.00;99.90;;;;;;5022485;28;20049;-88
2023/10/16 03:06:12;;;;;;;3.88;1.40;;;8.00;99.90;;;;;;5027970;28;20052;-88
2023/10/16 03:08:38;;;;;;;6.28;2.10;;;8.00;99.90;;;;;;5016442;28;20046;-87
2023/10/16 03:11:06;;;;;;;6.63;1.42;;;8.00;99.90;;;;;;5027687;28;20129;-87
2023/10/16 03:13:35;;;;;;;5.80;2.30;;;8.00;99.90;;;;;;5031265;28;20089;-88
2023/10/16 03:16:05;;;;;;;4.88;1.80;;;8.00;99.90;;;;;;5017840;28;20041;-87
2023/10/16 03:18:32;;;;;;;5.18;2.05;;;8.00;99.90;;;;;;5018643;28;20057;-87
2023/10/16 03:21:04;;;;;;;6.53;2.25;;;8.00;99.90;;;;;;5019127;28;20461;-87
2023/10/16 03:23:30;;;;;;;5.00;1.80;;;8.00;99.90;;;;;;5022258;28;20493;-87
2023/10/16 03:25:59;;;;;;;5.50;2.05;;;8.00;99.90;;;;;;5019951;28;20103;-86
2023/10/16 03:28:24;;;;;;;6.55;1.95;;;7.90;99.90;;;;;;5031131;28;20045;-87
2023/10/16 03:30:51;;;;;;;6.05;2.10;;;7.90;99.90;;;;;;5025085;28;20049;-87
2023/10/16 03:33:16;;;;;;;6.28;2.10;;;7.90;99.90;;;;;;5014946;28;20040;-87
2023/10/16 03:35:44;;;;;;;5.90;2.72;;;7.90;99.90;;;;;;5023283;28;20033;-87
2023/10/16 03:38:11;;;;;;;7.25;2.70;;;7.90;99.90;;;;;;5027245;28;20042;-87
2023/10/16 03:40:38;;;;;;;6.78;2.00;;;7.90;99.90;;;;;;5021963;28;20106;-87
2023/10/16 03:43:03;;;;;;;6.78;2.80;;;7.90;99.90;;;;;;5023394;28;20049;-87
2023/10/16 03:45:29;;;;;;;2.63;1.63;;;7.90;99.90;;;;;;5019293;28;20046;-87
2023/10/16 03:48:03;;;;;;;3.25;2.00;;;7.90;99.90;;;;;;5024376;28;20056;-87
2023/10/16 03:50:34;;;;;;;6.88;2.10;;;7.80;99.90;;;;;;5020267;28;20536;-87
2023/10/16 03:53:01;;;;;;;4.35;2.30;;;7.90;99.90;;;;;;5022447;28;20056;-87
2023/10/16 03:55:27;;;;;;;4.80;2.87;;;7.90;99.90;;;;;;5014166;28;20394;-87
2023/10/16 03:57:55;;;;;;;5.78;2.10;;;7.80;99.90;;;;;;5027623;28;20474;-87
2023/10/16 04:00:27;;;;;;;;;;;7.90;99.90;;;;;;5021701;28;20068;-87
2023/10/16 04:02:59;;;;;;;6.85;2.25;;;7.80;99.90;;;;;;5023192;28;19983;-87
2023/10/16 04:08:16;;;;;;;5.25;2.30;;;7.80;99.90;;;;;;5022224;28;20060;-87
2023/10/16 04:10:46;;;;;;;5.13;2.38;;;7.80;99.90;;;;;;5018567;28;20700;-88
2023/10/16 04:13:14;;;;;;;3.35;2.10;;;7.70;99.90;;;;;;5027607;28;20048;-87
2023/10/16 04:18:18;;;;;;;6.60;2.83;;;7.80;99.90;;;;;;5018916;28;20050;-88
2023/10/16 04:20:44;;;;;;;8.70;3.13;;;7.80;99.90;;;;;;5019055;28;20054;-87
2023/10/16 04:23:37;;;;;;;5.65;2.17;;;7.80;99.90;;;;;;5025362;28;20041;-88
2023/10/16 04:31:44;;;;;;;6.72;2.70;;;7.70;99.90;;;;;;5018599;28;20060;-88
2023/10/16 06:16:17;;;;;;;5.70;2.60;;;7.80;99.90;;;;;;5010422;28;20062;-81
2023/10/16 06:18:47;;;;;;;8.00;3.63;;;7.80;99.90;;;;;;5016052;28;20068;-81
2023/10/16 06:21:14;;;;;;;4.75;2.67;;;7.80;99.90;;;;;;5024777;28;20058;-81
2023/10/16 06:23:49;;;;;;;7.28;2.83;;;7.80;99.90;;;;;;5011351;28;20042;-80
2023/10/16 06:26:16;;;;;;;7.40;3.15;;;7.80;99.90;;;;;;5017616;28;20052;-81
2023/10/16 06:28:49;;;;;;;5.80;2.47;;;7.70;99.90;;;;;;5003557;28;20684;-81
2023/10/16 06:31:22;;;;;;;6.82;2.80;;;7.70;99.90;;;;;;5011532;28;20328;-81
2023/10/16 06:33:53;;;;;;;6.57;2.53;;;7.80;99.90;;;;;;5023440;28;20045;-81
2023/10/16 06:36:23;;;;;;;6.72;2.53;;;7.70;99.90;;;;;;5017649;28;20141;-81
2023/10/16 06:38:53;;;;;;;6.40;2.97;;;7.70;99.90;;;;;;5014736;28;20050;-82
2023/10/16 06:41:22;;;;;;;5.32;2.72;;;7.80;99.90;;;;;;5018240;28;20042;-81
2023/10/16 06:43:49;;;;;;;5.80;2.90;;;7.80;99.90;;;;;;5030487;27;20046;-82
2023/10/16 06:46:23;;;;;;;7.57;2.80;;;7.80;99.90;;;;;;5003093;28;20057;-81
2023/10/16 06:48:53;;;;;;;10.13;3.00;;;7.80;99.90;;;;;;5017595;28;20489;-82
2023/10/16 06:51:25;;;;;;;6.32;2.80;;;7.80;99.90;;;;;;5005274;28;20045;-81
2023/10/16 06:53:55;;;;;;;7.20;3.20;;;7.90;99.90;;;;;;5012711;28;20433;-81
2023/10/16 06:56:34;;;;;;;7.78;4.05;;;7.80;99.90;;;;;;5020634;28;20041;-81
2023/10/16 06:59:00;;;;;;;8.80;3.30;;;7.90;99.90;;;;;;5110498;27;20100;-81
2023/10/16 07:01:26;;;;;;;12.52;3.70;;;7.90;99.90;;;;;;5102141;27;20091;-81
2023/10/16 07:03:56;;;;;;;7.63;3.90;;;8.00;99.90;;;;;;5004449;28;20057;-81
2023/10/16 07:06:27;;;;;;;9.35;4.97;;;7.90;99.90;;;;;;5016809;28;20141;-81
2023/10/16 07:08:52;;;;;;;10.10;5.40;;;8.00;99.90;;;;;;4999308;28;20434;-81
2023/10/16 07:11:20;;;;;;;9.57;4.35;;;8.10;99.90;;;;;;5011582;28;20053;-82
2023/10/16 07:13:47;;;;;;;9.25;4.22;;;8.10;99.90;;;;;;5016578;28;20803;-75
2023/10/16 07:16:16;;;;;;;8.73;4.60;;;8.10;99.90;;;;;;5012558;28;20045;-81
2023/10/16 07:18:45;;;;;;;8.68;4.60;;;8.20;99.90;;;;;;5005303;28;20504;-78
2023/10/16 07:21:17;;;;;;;6.88;3.35;;;8.20;99.90;;;;;;4994322;28;20050;-81
2023/10/16 07:23:43;;;;;;;7.60;4.60;;;8.20;99.90;;;;;;4998587;28;20050;-83
2023/10/16 07:26:10;;;;;;;5.47;3.60;;;8.20;99.90;;;;;;5000880;28;20100;-78
2023/10/16 07:28:38;;;;;;;11.95;5.18;;;8.30;99.90;;;;;;4994599;28;20048;-76
2023/10/16 07:31:05;;;;;;;;;;;8.30;99.90;;;;;;4994136;28;20043;-74
2023/10/16 07:33:32;;;;;;;8.43;3.88;;;8.40;99.90;;;;;;5005526;28;19952;-81
2023/10/16 07:36:10;;;;;;;9.30;4.15;;;8.40;99.90;;;;;;5014668;28;20069;-79
2023/10/16 07:38:38;;;;;;;9.00;5.20;;;8.50;99.90;;;;;;4995025;28;20557;-80
2023/10/16 07:41:04;;;;;;;11.15;3.95;;;8.60;99.90;;;;;;4997322;28;20053;-84
2023/10/16 07:43:34;;;;;;;9.32;3.88;;;8.60;99.90;;;;;;5005076;28;20455;-77
2023/10/16 07:46:18;;;;;;;7.28;3.95;;;8.60;99.90;;;;;;5010925;28;20137;-80
2023/10/16 07:48:50;;;;;;;10.27;3.60;;;8.70;99.90;;;;;;5001541;28;20446;-79
2023/10/16 07:51:19;;;;;;;8.50;3.60;;;8.70;99.90;;;;;;5097904;27;20042;-79
2023/10/16 07:53:48;;;;;;;8.23;4.60;;;8.80;99.90;;;;;;4987265;28;20049;-79
2023/10/16 07:56:33;;;;;;;6.95;3.33;;;8.90;99.90;;;;;;4987435;28;20046;-79
2023/10/16 07:59:06;;;;;;;10.68;4.20;;;9.00;99.90;;;;;;5095577;27;20868;-79
2023/10/16 08:01:54;;;;;;;5.55;2.95;;;9.10;99.90;;;;;;5013625;28;20071;-79
2023/10/16 08:06:53;;;;;;;7.60;4.05;;;9.20;99.90;;;;;;4999221;28;20046;-75
2023/10/16 08:11:58;;;;;;;5.65;3.63;;;9.30;99.90;;;;;;5011014;28;20053;-75
2023/10/16 08:14:24;;;;;;;9.48;4.07;;;9.40;99.90;;;;;;5002440;28;20046;-77
2023/10/16 08:16:58;;;;;;;9.95;3.10;;;9.50;99.90;;;;;;5001952;28;20053;-74
2023/10/16 08:19:25;;;;;;;8.10;4.00;;;9.50;99.90;;;;;;5002428;28;20077;-75
2023/10/16 08:21:54;;;;;;;13.73;4.00;;;9.50;99.90;;;;;;5005176;28;20049;-79
2023/10/16 08:24:21;;;;;;;7.43;3.50;;;9.60;99.90;;;;;;4991564;28;20043;-78
2023/10/16 08:26:48;;;;;;;8.77;4.13;;;9.60;99.90;;;;;;5004793;28;20578;-77
2023/10/16 08:31:45;;;;;;;5.03;3.08;;;9.80;99.90;;;;;;5098034;27;20061;-77
2023/10/16 08:34:21;;;;;;;7.65;4.10;;;9.80;99.90;;;;;;5000623;28;20579;-78
2023/10/16 08:36:50;;;;;;;10.55;4.05;;;9.80;99.90;;;;;;4999770;28;20050;-78
2023/10/16 08:39:19;;;;;;;7.72;4.10;;;9.90;99.90;;;;;;4999876;28;20102;-77
2023/10/16 08:42:11;;;;;;;7.53;3.13;;;9.90;99.90;;;;;;5094488;27;20052;-77
2023/10/16 08:44:38;;;;;;;5.05;3.22;;;10.00;99.90;;;;;;4993243;28;20070;-77
2023/10/16 08:49:33;;;;;;;6.03;3.90;;;10.10;99.90;;;;;;4987113;28;20518;-77
2023/10/16 08:52:10;;;;;;;6.68;3.38;;;10.10;99.90;;;;;;5010503;28;20340;-77
2023/10/16 08:57:33;;;;;;;8.90;4.38;;;10.20;99.90;;;;;;5004718;28;20058;-85
2023/10/16 08:59:59;;;;;;;6.45;3.55;;;10.40;99.90;;;;;;4992259;28;20113;-73
2023/10/16 09:02:26;;;;;;;10.75;3.65;;;10.40;99.90;;;;;;5007774;28;20037;-82
2023/10/16 09:04:52;;;;;;;6.90;2.88;;;10.40;99.90;;;;;;5006983;28;20143;-79
2023/10/16 09:07:19;;;;;;;8.00;3.17;;;10.60;99.90;;;;;;4992896;28;20610;-81
2023/10/16 09:09:48;;;;;;;5.85;2.95;;;10.60;99.90;;;;;;4987274;28;20489;-80
2023/10/16 09:12:28;;;;;;;7.53;3.50;;;10.70;99.90;;;;;;4992459;28;20543;-74
2023/10/16 09:15:05;;;;;;;5.43;3.00;;;10.80;99.90;;;;;;5007395;28;20528;-81
2023/10/16 09:17:34;;;;;;;6.65;3.30;;;10.90;99.90;;;;;;5003665;28;20053;-80
2023/10/16 09:20:12;;;;;;;7.78;3.30;;;10.90;99.90;;;;;;5007443;28;22013;-79
2023/10/16 09:22:40;;;;;;;5.20;2.47;;;11.00;99.90;;;;;;5001253;28;20047;-79
2023/10/16 09:25:08;;;;;;;7.55;2.88;;;11.10;99.90;;;;;;4990586;28;20524;-77
2023/10/16 09:27:36;;;;;;;7.78;3.00;;;11.20;99.90;;;;;;4990643;28;20050;-77
2023/10/16 09:30:14;;;;;;;11.05;3.08;;;11.20;99.90;;;;;;4996088;28;20046;-79
2023/10/16 09:32:39;;;;;;;5.32;2.30;;;11.20;99.90;;;;;;4994570;28;20046;-80
2023/10/16 09:35:11;;;;;;;15.52;3.55;;;11.30;99.90;;;;;;5007730;28;20428;-82
2023/10/16 09:37:37;;;;;;;6.57;2.20;;;11.30;99.90;;;;;;5098451;27;20257;-82
2023/10/16 09:40:35;;;;;;;7.03;2.60;;;11.40;99.90;;;;;;4988074;28;20493;-77
2023/10/16 09:43:05;;;;;;;6.78;3.15;;;11.40;99.90;;;;;;4995495;28;20053;-79
2023/10/16 09:45:38;;;;;;;7.57;2.55;;;11.40;99.90;;;;;;5014689;28;20038;-76
2023/10/16 09:48:09;;;;;;;6.60;2.05;;;11.50;99.90;;;;;;5010415;28;20050;-75
2023/10/16 09:50:37;;;;;;;6.50;2.15;;;11.50;99.90;;;;;;5014802;28;20465;-75
2023/10/16 09:53:06;;;;;;;9.93;2.13;;;11.50;99.90;;;;;;4994762;28;20237;-75
2023/10/16 09:55:44;;;;;;;7.10;2.20;;;11.50;99.90;;;;;;4991501;28;20039;-74
2023/10/16 09:58:11;;;;;;;7.93;2.38;;;11.50;99.90;;;;;;5103522;27;20053;-75
2023/10/16 10:00:46;;;;;;;10.07;2.88;;;11.50;99.90;;;;;;5002647;28;20065;-75
2023/10/16 10:03:14;;;;;;;9.73;2.08;;;11.50;99.90;;;;;;4995998;28;20042;-74
2023/10/16 10:05:55;;;;;;;7.82;2.30;;;11.50;99.90;;;;;;5002194;28;20038;-75
2023/10/16 10:09:20;;;;;;;5.30;2.00;;;11.50;99.90;;;;;;4997324;28;20192;-76
2023/10/16 10:12:47;;;;;;;6.00;1.48;;;11.50;99.90;;;;;;5019062;28;20183;-78
2023/10/16 10:14:51;;;;;;;8.27;1.67;;;11.60;99.90;;;;;;5014503;28;20140;-78
2023/10/16 10:17:20;;;;;;;10.90;2.17;;;11.60;99.90;;;;;;5011689;28;20050;-79
2023/10/16 10:19:58;;;;;;;5.57;1.83;;;11.60;99.90;;;;;;4999870;28;21109;-76
2023/10/16 10:22:35;;;;;;;8.73;2.03;;;11.60;99.90;;;;;;5006090;28;20109;-81
2023/10/16 10:25:26;;;;;;;7.82;1.73;;;11.70;99.90;;;;;;4993545;28;20038;-77
2023/10/16 10:27:54;;;;;;;5.38;1.33;;;11.70;99.90;;;;;;5000124;28;20477;-77
2023/10/16 10:30:27;;;;;;;4.68;1.30;;;11.70;99.90;;;;;;5001679;28;20172;-77
2023/10/16 10:32:55;;;;;;;5.55;1.75;;;11.70;99.90;;;;;;5011547;28;20048;-78
2023/10/16 10:35:38;;;;;;;7.82;1.85;;;11.70;99.90;;;;;;5011998;28;20034;-82
2023/10/16 10:38:07;;;;;;;8.52;1.70;;;11.80;99.90;;;;;;5002367;28;20049;-71
2023/10/16 10:40:35;;;;;;;6.43;1.75;;;11.80;99.90;;;;;;5005647;28;20042;-72
2023/10/16 10:43:03;;;;;;;8.43;2.00;;;11.90;99.90;;;;;;5003848;28;20050;-71
2023/10/16 10:45:36;;;;;;;6.30;1.50;;;11.90;99.90;;;;;;4998907;28;20050;-73
2023/10/16 10:48:06;;;;;;;8.65;1.90;;;12.00;99.90;;;;;;4987345;28;20062;-71
2023/10/16 10:50:38;;;;;;;10.68;2.10;;;12.10;99.90;;;;;;5099612;28;21351;-70
2023/10/16 10:53:13;;;;;;;6.47;1.58;;;12.10;99.90;;;;;;5038991;28;20046;-70
2023/10/16 10:55:56;;;;;;;4.28;1.30;;;12.20;99.90;;;;;;5001545;28;20050;-70
2023/10/16 10:58:25;;;;;;;5.72;1.55;;;12.30;99.90;;;;;;4987981;28;20484;-73
2023/10/16 11:00:58;;;;;;;5.32;1.40;;;12.30;99.90;;;;;;4991845;28;20042;-73
2023/10/16 11:03:41;;;;;;;6.65;1.50;;;12.30;99.90;;;;;;4994973;28;20041;-74
2023/10/16 11:06:17;;;;;;;5.20;1.50;;;12.30;99.90;;;;;;5003814;28;20130;-73
2023/10/16 11:08:53;;;;;;;6.50;1.52;;;12.40;99.90;;;;;;4986542;28;20054;-75
2023/10/16 11:11:19;;;;;;;5.57;1.65;;;12.40;99.90;;;;;;5090748;28;20088;-74
2023/10/16 11:13:46;;;;;;;4.68;1.30;;;12.50;99.90;;;;;;5008495;28;20441;-75
2023/10/16 11:16:12;;;;;;;5.47;1.55;;;12.60;99.90;;;;;;5009510;28;20049;-73
2023/10/16 11:18:38;;;;;;;7.28;1.65;;;12.60;99.90;;;;;;5014334;28;20046;-74
2023/10/16 11:21:07;;;;;;;5.78;1.58;;;12.70;99.90;;;;;;5008973;28;20053;-73
2023/10/16 11:23:38;;;;;;;7.25;1.67;;;12.60;99.90;;;;;;4998750;28;20124;-74
2023/10/16 11:26:12;;;;;;;6.20;1.40;;;12.60;99.90;;;;;;5097701;27;20388;-74
2023/10/16 11:28:37;;;;;;;4.22;1.50;;;12.60;99.90;;;;;;5002606;28;20526;-74
2023/10/16 11:31:09;;;;;;;6.80;1.55;;;12.50;99.90;;;;;;5008813;28;20069;-73
2023/10/16 11:33:47;;;;;;;7.18;1.30;;;12.50;99.90;;;;;;4990089;28;20061;-73
2023/10/16 11:36:16;;;;;;;7.05;1.70;;;12.50;99.90;;;;;;5108803;27;20049;-73
2023/10/16 11:38:45;;;;;;;7.28;1.48;;;12.60;99.90;;;;;;5000547;28;20053;-72
2023/10/16 11:41:19;;;;;;;5.25;1.58;;;12.60;99.90;;;;;;5001154;28;20077;-74
2023/10/16 11:43:51;;;;;;;6.88;1.50;;;12.60;99.90;;;;;;4972236;28;20045;-75
2023/10/16 11:51:48;;;;;;;5.22;1.30;;;12.70;99.90;;;;;;5094620;27;20056;-73
2023/10/16 11:54:24;;;;;;;6.70;1.38;;;12.70;99.90;;;;;;5000700;28;20493;-75
2023/10/16 11:56:54;;;;;;;7.45;1.70;;;12.70;99.90;;;;;;5017805;28;20047;-73
2023/10/16 11:59:21;;;;;;;6.70;1.77;;;12.70;99.90;;;;;;4997885;28;20092;-71
2023/10/16 12:01:53;;;;;;;;;;;12.70;99.90;;;;;;5009355;28;20131;-72
2023/10/16 12:04:23;;;;;;;3.53;1.13;;;12.70;99.90;;;;;;4997814;28;19925;-71
2023/10/16 12:06:49;;;;;;;7.10;1.30;;;12.70;99.90;;;;;;5098926;27;20050;-76
2023/10/16 12:09:21;;;;;;;6.18;1.30;;;12.70;99.90;;;;;;5005587;28;20079;-73
2023/10/16 12:11:51;;;;;;;5.80;1.40;;;12.70;99.90;;;;;;5118061;27;20069;-74
2023/10/16 12:14:18;;;;;;;6.88;1.73;;;12.80;99.90;;;;;;4992755;28;20192;-73
2023/10/16 12:16:45;;;;;;;5.13;1.17;;;12.80;99.90;;;;;;4991560;28;20408;-73
2023/10/16 12:19:16;;;;;;;5.65;1.50;;;12.80;99.90;;;;;;4998490;28;20061;-74
2023/10/16 12:21:50;;;;;;;5.47;1.42;;;12.70;99.90;;;;;;5096470;27;20427;-74
2023/10/16 12:24:20;;;;;;;4.93;1.38;;;12.80;99.90;;;;;;5007226;28;20046;-72
2023/10/16 12:26:46;;;;;;;5.35;1.20;;;12.80;99.90;;;;;;5003566;28;20046;-72
2023/10/16 12:29:11;;;;;;;5.25;1.70;;;12.80;99.90;;;;;;5002305;28;20050;-71
2023/10/16 12:31:41;;;;;;;7.20;1.75;;;12.80;99.90;;;;;;4995604;28;20045;-70
2023/10/16 12:34:11;;;;;;;8.25;1.45;;;12.80;99.90;;;;;;5005009;28;20067;-73
2023/10/16 12:36:42;;;;;;;3.97;1.40;;;12.80;99.90;;;;;;4997455;28;20054;-73
2023/10/16 12:39:29;;;;;;;4.35;1.38;;;12.80;99.90;;;;;;5003053;28;20045;-72
2023/10/16 12:41:57;;;;;;;5.88;1.35;;;12.80;99.90;;;;;;4990230;28;20043;-72
2023/10/16 12:44:23;;;;;;;6.78;1.35;;;12.80;99.90;;;;;;4986489;28;20073;-73
2023/10/16 12:46:56;;;;;;;3.63;1.20;;;12.80;99.90;;;;;;4990791;28;20061;-72
2023/10/16 12:49:21;;;;;;;5.55;1.38;;;12.70;99.90;;;;;;5000917;28;20477;-73
2023/10/16 12:51:49;;;;;;;10.50;1.70;;;12.70;99.90;;;;;;4999263;28;20045;-72
2023/10/16 12:54:15;;;;;;;5.47;1.45;;;12.80;99.90;;;;;;5006011;28;20400;-71
2023/10/16 12:56:43;;;;;;;5.85;1.30;;;12.80;99.90;;;;;;5016629;28;20041;-73
2023/10/16 12:59:10;;;;;;;5.40;1.50;;;12.80;99.90;;;;;;4995822;28;20121;-72
2023/10/16 13:01:36;;;;;;;;;;;12.80;99.90;;;;;;5102807;27;20049;-72
2023/10/16 13:04:15;;;;;;;5.45;1.00;;;12.80;99.90;;;;;;5003523;28;19925;-72
2023/10/16 13:06:43;;;;;;;5.95;1.10;;;12.80;99.90;;;;;;4996304;28;20190;-72
2023/10/16 13:09:15;;;;;;;5.10;1.38;;;12.80;99.90;;;;;;4995266;28;20038;-72
2023/10/16 13:11:41;;;;;;;6.85;1.40;;;12.90;99.90;;;;;;4987323;28;20147;-72
2023/10/16 13:14:07;;;;;;;4.97;1.40;;;12.90;99.90;;;;;;4987481;28;20050;-72
2023/10/16 13:16:33;;;;;;;8.25;1.55;;;12.90;99.90;;;;;;4995269;28;20118;-72
2023/10/16 13:18:59;;;;;;;4.40;0.93;;;12.90;99.90;;;;;;5109521;27;20054;-72
2023/10/16 13:21:35;;;;;;;5.88;1.35;;;12.90;99.90;;;;;;5105209;27;20042;-73
2023/10/16 13:24:06;;;;;;;5.35;1.45;;;12.90;99.90;;;;;;5104090;27;20483;-72
2023/10/16 13:26:36;;;;;;;5.47;1.30;;;12.90;99.90;;;;;;4997171;28;20630;-73
2023/10/16 13:29:13;;;;;;;6.88;1.77;;;12.90;99.90;;;;;;4998015;28;20057;-72
2023/10/16 13:31:46;;;;;;;12.07;1.80;;;12.90;99.90;;;;;;5006048;28;20049;-72
2023/10/16 13:34:17;;;;;;;5.40;1.40;;;12.90;99.90;;;;;;5008505;28;20122;-73
2023/10/16 13:37:00;;;;;;;4.63;1.40;;;12.90;99.90;;;;;;5016335;28;20472;-74
2023/10/16 13:39:26;;;;;;;2.97;1.30;;;12.80;99.90;;;;;;4987199;28;20058;-72
2023/10/16 13:41:53;;;;;;;6.30;1.55;;;12.80;99.90;;;;;;4999737;28;20444;-72
2023/10/16 13:44:19;;;;;;;5.33;1.20;;;12.90;99.90;;;;;;4990634;28;20374;-72
2023/10/16 13:46:49;;;;;;;4.90;1.40;;;12.90;99.90;;;;;;4989593;28;20061;-72
2023/10/16 13:49:16;;;;;;;5.13;1.33;;;12.90;99.90;;;;;;4993472;28;20049;-72
2023/10/16 13:51:45;;;;;;;4.83;1.47;;;12.90;99.90;;;;;;4990886;28;20050;-72
2023/10/16 13:54:14;;;;;;;4.93;1.40;;;12.90;99.90;;;;;;5098512;27;20328;-72
2023/10/16 13:56:46;;;;;;;2.80;1.00;;;13.00;99.90;;;;;;5012774;28;20038;-73
2023/10/16 13:59:15;;;;;;;6.05;1.48;;;12.90;99.90;;;;;;4999527;28;20659;-73
2023/10/16 14:01:45;;;;;;;4.28;1.27;;;13.00;99.90;;;;;;4982977;28;20030;-73
2023/10/16 14:04:15;;;;;;;5.45;1.10;;;13.00;99.90;;;;;;5093574;27;20162;-72
2023/10/16 14:06:43;;;;;;;4.35;1.25;;;13.00;99.90;;;;;;4993774;28;20046;-72
2023/10/16 14:09:28;;;;;;;8.68;1.40;;;13.00;99.90;;;;;;4989959;28;20046;-73
2023/10/16 14:11:58;;;;;;;4.53;1.27;;;12.90;99.90;;;;;;5116528;27;20036;-72
2023/10/16 14:14:26;;;;;;;3.50;1.10;;;13.00;99.90;;;;;;4997196;28;20046;-72
2023/10/16 14:17:16;;;;;;;5.25;1.70;;;13.00;99.90;;;;;;5001785;28;20042;-72
2023/10/16 14:19:47;;;;;;;4.95;1.40;;;12.90;99.90;;;;;;4991329;28;20058;-73
2023/10/16 14:22:15;;;;;;;5.00;1.30;;;13.00;99.90;;;;;;4994797;28;20143;-72
2023/10/16 14:24:44;;;;;;;5.57;1.52;;;12.90;99.90;;;;;;4998120;28;20127;-72
2023/10/16 14:27:13;;;;;;;4.43;1.40;;;13.00;99.90;;;;;;5000641;28;20046;-72
2023/10/16 14:29:44;;;;;;;5.93;1.70;;;12.90;99.90;;;;;;5000943;28;20160;-72
2023/10/16 14:32:10;;;;;;;10.23;1.73;;;12.90;99.90;;;;;;4990707;28;20108;-72
2023/10/16 14:34:36;;;;;;;5.45;1.63;;;12.90;99.90;;;;;;4993652;28;20057;-72
2023/10/16 14:37:05;;;;;;;7.38;1.55;;;12.90;99.90;;;;;;5005354;28;20050;-73
2023/10/16 14:39:31;;;;;;;4.60;1.38;;;12.90;99.90;;;;;;4998415;28;20049;-73
2023/10/16 14:42:05;;;;;;;6.82;1.77;;;12.90;99.90;;;;;;4988076;28;20133;-73
2023/10/16 14:44:31;;;;;;;5.55;1.20;;;13.00;99.90;;;;;;4988715;28;20534;-73
2023/10/16 14:46:57;;;;;;;5.10;1.58;;;13.00;99.90;;;;;;5002943;28;20058;-73
2023/10/16 14:49:26;;;;;;;5.10;1.40;;;12.90;99.90;;;;;;4987935;28;20047;-73
2023/10/16 14:51:53;;;;;;;5.40;1.67;;;13.00;99.90;;;;;;4989894;28;20053;-72
2023/10/16 14:54:21;;;;;;;7.68;1.65;;;12.90;99.90;;;;;;5002510;28;20068;-74
2023/10/16 14:56:49;;;;;;;6.07;1.63;;;12.90;99.90;;;;;;4997798;28;20050;-74
2023/10/16 14:59:26;;;;;;;;;;;12.90;99.90;;;;;;5109812;27;20053;-75
2023/10/16 15:01:54;;;;;;;7.43;1.65;;;12.90;99.90;;;;;;4993356;28;19925;-73
2023/10/16 15:04:20;;;;;;;4.88;1.40;;;12.90;99.90;;;;;;5008324;28;20045;-76
2023/10/16 15:06:46;;;;;;;7.60;1.50;;;12.90;99.90;;;;;;4993000;28;20149;-76
2023/10/16 15:09:18;;;;;;;7.78;1.83;;;12.90;99.90;;;;;;5009521;28;20601;-77
2023/10/16 15:11:45;;;;;;;6.63;1.70;;;12.90;99.90;;;;;;5006604;28;20042;-76
2023/10/16 15:14:12;;;;;;;;;;;12.90;99.90;;;;;;5008651;28;20068;-76
2023/10/16 15:16:40;;;;;;;6.78;1.70;;;12.90;99.90;;;;;;4987481;28;20024;-75
2023/10/16 15:19:10;;;;;;;4.55;1.50;;;12.90;99.90;;;;;;4991901;28;20470;-76
2023/10/16 15:21:40;;;;;;;5.97;1.50;;;12.90;99.90;;;;;;5014474;28;20098;-75